createdAt,value
2018-05-17T00:01:51.893Z,15.97
2018-05-17T00:04:19.381Z,15.96
2018-05-17T00:06:46.884Z,15.84
2018-05-17T00:09:14.397Z,16.00
2018-05-17T00:11:41.916Z,16.04
2018-05-17T00:14:09.445Z,16.07
2018-05-17T00:16:36.969Z,16.09
2018-05-17T00:19:04.456Z,15.94
2018-05-17T00:21:31.972Z,16.18
2018-05-17T00:23:59.488Z,16.17
2018-05-17T00:26:27.029Z,16.10
2018-05-17T00:28:54.540Z,16.13
2018-05-17T00:31:22.036Z,16.20
2018-05-17T00:33:49.557Z,16.06
2018-05-17T00:36:17.057Z,16.06
2018-05-17T00:38:44.581Z,16.04
2018-05-17T00:41:12.135Z,16.07
2018-05-17T00:43:39.632Z,15.98
2018-05-17T00:46:07.124Z,16.00
2018-05-17T00:48:34.657Z,15.92
2018-05-17T00:51:02.173Z,16.09
2018-05-17T00:53:31.720Z,15.83
2018-05-17T00:55:59.221Z,15.87
2018-05-17T00:58:26.720Z,15.98
2018-05-17T01:00:54.224Z,15.95
2018-05-17T01:03:22.105Z,15.91
2018-05-17T01:05:49.616Z,15.86
2018-05-17T01:08:17.105Z,15.80
2018-05-17T01:10:44.836Z,15.76
2018-05-17T01:13:12.328Z,15.98
2018-05-17T01:15:39.821Z,15.89
2018-05-17T01:18:07.349Z,15.76
2018-05-17T01:20:34.837Z,15.97
2018-05-17T01:23:02.336Z,15.85
2018-05-17T01:28:02.566Z,15.80
2018-05-17T01:30:30.519Z,15.87
2018-05-17T01:32:58.035Z,15.77
2018-05-17T01:35:25.529Z,15.78
2018-05-17T01:38:04.761Z,15.83
2018-05-17T01:40:32.249Z,15.62
2018-05-17T01:42:59.743Z,15.78
2018-05-17T01:45:27.257Z,15.74
2018-05-17T01:47:54.771Z,15.63
2018-05-17T01:50:22.285Z,15.71
2018-05-17T01:52:49.802Z,15.55
2018-05-17T01:55:17.304Z,15.57
2018-05-17T01:57:44.799Z,15.62
2018-05-17T02:00:12.547Z,15.71
2018-05-17T02:02:40.055Z,15.67
2018-05-17T02:05:07.541Z,15.74
2018-05-17T02:07:35.089Z,15.67
2018-05-17T02:10:02.589Z,15.63
2018-05-17T02:12:30.080Z,15.58
2018-05-17T02:14:57.800Z,15.50
2018-05-17T02:17:25.293Z,15.34
2018-05-17T02:19:52.842Z,15.40
2018-05-17T02:22:20.765Z,15.30
2018-05-17T02:24:48.252Z,15.31
2018-05-17T02:27:15.835Z,15.27
2018-05-17T02:29:43.522Z,15.18
2018-05-17T02:32:11.021Z,14.96
2018-05-17T02:34:38.526Z,15.05
2018-05-17T02:37:06.078Z,15.05
2018-05-17T02:39:33.573Z,14.96
2018-05-17T02:42:01.069Z,14.92
2018-05-17T02:44:28.759Z,14.64
2018-05-17T02:46:56.269Z,14.62
2018-05-17T02:49:23.765Z,14.55
2018-05-17T02:51:51.328Z,14.68
2018-05-17T02:54:18.828Z,14.63
2018-05-17T02:56:46.329Z,14.71
2018-05-17T02:59:13.840Z,14.69
2018-05-17T03:01:41.345Z,14.48
2018-05-17T03:04:09.131Z,14.54
2018-05-17T03:06:36.639Z,14.53
2018-05-17T03:09:06.924Z,14.43
2018-05-17T03:11:34.458Z,14.43
2018-05-17T03:14:01.954Z,14.32
2018-05-17T03:16:29.480Z,14.35
2018-05-17T03:18:57.027Z,14.31
2018-05-17T03:21:24.521Z,14.33
2018-05-17T03:23:52.041Z,14.44
2018-05-17T03:26:19.537Z,14.24
2018-05-17T03:28:47.076Z,14.33
2018-05-17T03:31:14.584Z,14.34
2018-05-17T03:33:42.092Z,14.33
2018-05-17T03:36:09.605Z,14.40
2018-05-17T03:38:37.105Z,14.33
2018-05-17T03:41:04.748Z,14.19
2018-05-17T03:43:32.257Z,14.25
2018-05-17T03:45:59.745Z,14.14
2018-05-17T03:48:27.268Z,14.32
2018-05-17T03:50:54.772Z,14.33
2018-05-17T03:53:22.321Z,14.36
2018-05-17T03:55:49.808Z,14.18
2018-05-17T03:58:17.300Z,14.15
2018-05-17T04:00:56.481Z,14.14
2018-05-17T04:03:35.924Z,14.22
2018-05-17T04:06:15.324Z,14.00
2018-05-17T04:08:42.857Z,13.98
2018-05-17T04:11:10.357Z,14.04
2018-05-17T04:13:37.857Z,14.10
2018-05-17T04:16:05.396Z,13.91
2018-05-17T04:18:32.904Z,13.89
2018-05-17T04:21:00.432Z,13.89
2018-05-17T04:23:27.921Z,13.96
2018-05-17T04:25:55.413Z,13.94
2018-05-17T04:28:22.945Z,13.94
2018-05-17T04:30:50.437Z,13.82
2018-05-17T04:33:18.108Z,13.58
2018-05-17T04:35:45.601Z,13.63
2018-05-17T04:38:13.094Z,13.62
2018-05-17T04:40:40.605Z,13.67
2018-05-17T04:43:08.106Z,13.74
2018-05-17T04:45:35.832Z,13.79
2018-05-17T04:48:03.328Z,13.85
2018-05-17T04:50:30.829Z,13.84
2018-05-17T04:52:58.345Z,13.91
2018-05-17T04:55:25.845Z,13.82
2018-05-17T04:57:53.437Z,14.02
2018-05-17T05:00:20.952Z,13.96
2018-05-17T05:02:48.455Z,13.90
2018-05-17T05:05:15.985Z,14.00
2018-05-17T05:07:43.488Z,14.18
2018-05-17T05:10:11.009Z,14.03
2018-05-17T05:12:38.546Z,14.08
2018-05-17T05:15:06.061Z,14.12
2018-05-17T05:17:33.577Z,14.21
2018-05-17T05:20:01.072Z,14.07
2018-05-17T05:22:28.789Z,14.04
2018-05-17T05:24:56.281Z,14.16
2018-05-17T05:27:23.773Z,14.35
2018-05-17T05:29:51.286Z,14.12
2018-05-17T05:32:18.801Z,14.31
2018-05-17T05:34:46.445Z,14.09
2018-05-17T05:37:13.961Z,13.94
2018-05-17T05:39:41.453Z,14.08
2018-05-17T05:42:08.993Z,14.08
2018-05-17T05:44:36.493Z,13.98
2018-05-17T05:47:04.105Z,14.09
2018-05-17T05:49:31.675Z,13.96
2018-05-17T05:51:59.129Z,13.95
2018-05-17T05:54:26.699Z,13.79
2018-05-17T05:56:54.185Z,13.79
2018-05-17T05:59:21.721Z,13.62
2018-05-17T06:01:49.209Z,13.74
2018-05-17T06:04:16.720Z,13.74
2018-05-17T06:06:44.256Z,13.34
2018-05-17T06:09:11.745Z,13.35
2018-05-17T06:11:39.517Z,13.54
2018-05-17T06:14:07.064Z,13.38
2018-05-17T06:16:34.565Z,13.38
2018-05-17T06:19:02.078Z,13.42
2018-05-17T06:21:29.605Z,13.45
2018-05-17T06:23:57.153Z,13.40
2018-05-17T06:26:24.662Z,13.51
2018-05-17T06:28:52.161Z,13.29
2018-05-17T06:31:19.686Z,13.46
2018-05-17T06:33:47.177Z,13.31
2018-05-17T06:36:14.840Z,13.46
2018-05-17T06:38:42.336Z,13.36
2018-05-17T06:41:09.829Z,13.43
2018-05-17T06:43:37.344Z,13.46
2018-05-17T06:46:04.936Z,13.76
2018-05-17T06:48:32.513Z,13.89
2018-05-17T06:51:00.009Z,13.87
2018-05-17T06:53:27.521Z,13.82
2018-05-17T06:55:55.039Z,13.93
2018-05-17T06:58:22.545Z,13.63
2018-05-17T07:00:50.251Z,13.41
2018-05-17T07:03:17.745Z,13.69
2018-05-17T07:05:45.279Z,13.75
2018-05-17T07:08:12.797Z,13.72
2018-05-17T07:10:40.289Z,13.70
2018-05-17T07:13:08.017Z,13.63
2018-05-17T07:15:35.530Z,13.83
2018-05-17T07:18:03.127Z,13.81
2018-05-17T07:20:30.566Z,13.99
2018-05-17T07:22:58.068Z,14.04
2018-05-17T07:25:25.651Z,14.29
2018-05-17T07:27:53.152Z,14.27
2018-05-17T07:30:20.654Z,14.17
2018-05-17T07:32:48.177Z,13.87
2018-05-17T07:35:15.664Z,14.07
2018-05-17T07:37:43.329Z,14.11
2018-05-17T07:40:10.831Z,13.74
2018-05-17T07:42:38.321Z,13.65
2018-05-17T07:45:05.835Z,13.99
2018-05-17T07:47:34.549Z,14.19
2018-05-17T07:50:02.070Z,14.28
2018-05-17T07:52:29.569Z,14.24
2018-05-17T07:54:57.057Z,14.22
2018-05-17T07:57:24.584Z,14.30
2018-05-17T07:59:52.091Z,14.71
2018-05-17T08:02:19.833Z,14.69
2018-05-17T08:04:47.329Z,14.82
2018-05-17T08:07:14.825Z,14.99
2018-05-17T08:09:42.340Z,15.06
2018-05-17T08:12:09.833Z,14.99
2018-05-17T08:14:37.381Z,15.00
2018-05-17T08:17:04.895Z,15.07
2018-05-17T08:19:32.384Z,15.42
2018-05-17T08:21:59.896Z,15.20
2018-05-17T08:24:27.418Z,15.46
2018-05-17T08:26:55.177Z,15.50
2018-05-17T08:29:22.685Z,15.41
2018-05-17T08:31:50.193Z,15.51
2018-05-17T08:34:17.730Z,15.71
2018-05-17T08:36:45.241Z,15.44
2018-05-17T08:39:12.783Z,15.58
2018-05-17T08:41:40.319Z,15.75
2018-05-17T08:44:07.809Z,15.38
2018-05-17T08:46:35.325Z,15.31
2018-05-17T08:49:02.824Z,15.60
2018-05-17T08:51:30.488Z,15.62
2018-05-17T08:53:58.066Z,15.55
2018-05-17T08:56:25.605Z,15.43
2018-05-17T08:58:53.148Z,15.38
2018-05-17T09:01:20.644Z,15.51
2018-05-17T09:03:48.340Z,15.49
2018-05-17T09:06:15.867Z,15.37
2018-05-17T09:08:43.369Z,15.23
2018-05-17T09:11:10.881Z,15.42
2018-05-17T09:13:38.407Z,15.48
2018-05-17T09:16:06.049Z,15.49
2018-05-17T09:18:33.556Z,15.58
2018-05-17T09:21:01.048Z,15.81
2018-05-17T09:23:28.561Z,15.80
2018-05-17T09:25:56.046Z,15.75
2018-05-17T09:28:23.588Z,15.75
2018-05-17T09:30:51.089Z,15.75
2018-05-17T09:33:18.588Z,15.96
2018-05-17T09:35:46.222Z,16.21
2018-05-17T09:38:13.626Z,16.53
2018-05-17T09:40:41.310Z,16.61
2018-05-17T09:43:08.809Z,16.79
2018-05-17T09:45:36.297Z,16.58
2018-05-17T09:48:03.842Z,16.41
2018-05-17T09:50:31.333Z,16.70
2018-05-17T09:52:59.177Z,16.77
2018-05-17T09:55:26.677Z,16.43
2018-05-17T09:57:54.169Z,16.50
2018-05-17T10:00:22.492Z,16.65
2018-05-17T10:02:49.989Z,16.53
2018-05-17T10:05:17.871Z,16.53
2018-05-17T10:07:45.361Z,16.47
2018-05-17T10:10:12.861Z,16.37
2018-05-17T10:12:40.401Z,16.61
2018-05-17T10:15:07.892Z,16.34
2018-05-17T10:17:35.420Z,16.23
2018-05-17T10:20:02.927Z,16.26
2018-05-17T10:22:30.417Z,16.87
2018-05-17T10:24:57.947Z,16.51
2018-05-17T10:27:25.440Z,16.63
2018-05-17T10:29:53.166Z,17.09
2018-05-17T10:32:20.656Z,17.09
2018-05-17T10:34:48.173Z,17.49
2018-05-17T10:37:15.681Z,17.62
2018-05-17T10:39:43.178Z,17.52
2018-05-17T10:42:10.933Z,17.69
2018-05-17T10:44:38.349Z,17.69
2018-05-17T10:47:05.845Z,17.65
2018-05-17T10:49:33.357Z,17.95
2018-05-17T10:52:00.886Z,17.75
2018-05-17T10:54:28.516Z,17.85
2018-05-17T10:56:55.945Z,18.13
2018-05-17T10:59:23.446Z,18.06
2018-05-17T11:01:50.961Z,18.01
2018-05-17T11:04:18.461Z,18.13
2018-05-17T11:06:46.257Z,18.04
2018-05-17T11:09:13.825Z,17.91
2018-05-17T11:11:41.333Z,18.12
2018-05-17T11:14:08.867Z,17.94
2018-05-17T11:16:36.362Z,18.03
2018-05-17T11:19:03.907Z,18.09
2018-05-17T11:21:31.406Z,18.12
2018-05-17T11:23:58.896Z,18.16
2018-05-17T11:26:26.409Z,17.99
2018-05-17T11:28:53.905Z,18.13
2018-05-17T11:31:21.441Z,18.09
2018-05-17T11:33:48.943Z,17.98
2018-05-17T11:36:16.453Z,17.88
2018-05-17T11:38:43.978Z,18.17
2018-05-17T11:41:11.477Z,18.40
2018-05-17T11:43:39.404Z,18.01
2018-05-17T11:46:06.896Z,18.01
2018-05-17T11:48:34.392Z,18.27
2018-05-17T11:51:01.909Z,18.37
2018-05-17T11:53:29.400Z,18.24
2018-05-17T11:55:56.929Z,18.21
2018-05-17T11:58:24.461Z,18.08
2018-05-17T12:00:51.953Z,17.91
2018-05-17T12:03:19.479Z,18.07
2018-05-17T12:05:46.994Z,18.21
2018-05-17T12:08:14.716Z,18.45
2018-05-17T12:10:42.232Z,18.66
2018-05-17T12:13:09.734Z,18.48
2018-05-17T12:15:37.284Z,18.70
2018-05-17T12:18:04.785Z,18.46
2018-05-17T12:20:32.309Z,18.34
2018-05-17T12:23:00.270Z,18.41
2018-05-17T12:25:27.781Z,18.73
2018-05-17T12:27:55.327Z,19.13
2018-05-17T12:30:22.824Z,18.77
2018-05-17T12:32:50.660Z,18.58
2018-05-17T12:35:18.164Z,19.14
2018-05-17T12:37:45.656Z,19.11
2018-05-17T12:40:13.338Z,18.92
2018-05-17T12:42:40.940Z,18.56
2018-05-17T12:45:08.505Z,18.30
2018-05-17T12:47:36.034Z,18.40
2018-05-17T12:50:03.571Z,18.47
2018-05-17T12:52:31.100Z,18.10
2018-05-17T12:54:58.595Z,18.34
2018-05-17T12:57:26.125Z,18.48
2018-05-17T12:59:53.616Z,18.60
2018-05-17T13:02:21.108Z,18.39
2018-05-17T13:04:48.641Z,18.68
2018-05-17T13:07:16.153Z,18.72
2018-05-17T13:09:43.921Z,19.03
2018-05-17T13:12:11.421Z,19.09
2018-05-17T13:14:38.914Z,18.87
2018-05-17T13:17:06.443Z,18.92
2018-05-17T13:19:33.937Z,18.78
2018-05-17T13:22:01.493Z,18.77
2018-05-17T13:24:29.020Z,19.05
2018-05-17T13:26:56.596Z,19.00
2018-05-17T13:29:24.133Z,18.39
2018-05-17T13:31:51.924Z,18.75
2018-05-17T13:34:19.464Z,18.63
2018-05-17T13:36:46.969Z,18.62
2018-05-17T13:39:14.457Z,18.32
2018-05-17T13:41:41.982Z,18.39
2018-05-17T13:44:09.490Z,18.44
2018-05-17T13:46:37.197Z,18.40
2018-05-17T13:49:04.878Z,18.49
2018-05-17T13:51:32.301Z,18.76
2018-05-17T13:53:59.817Z,18.48
2018-05-17T13:56:27.325Z,18.66
2018-05-17T13:58:54.856Z,18.84
2018-05-17T14:01:22.381Z,18.81
2018-05-17T14:03:49.875Z,18.96
2018-05-17T14:06:17.417Z,19.19
2018-05-17T14:08:44.917Z,19.03
2018-05-17T14:11:12.609Z,19.07
2018-05-17T14:13:40.116Z,19.16
2018-05-17T14:16:07.671Z,19.23
2018-05-17T14:18:35.185Z,19.14
2018-05-17T14:21:02.694Z,19.22
2018-05-17T14:23:30.377Z,19.21
2018-05-17T14:25:57.865Z,19.39
2018-05-17T14:28:25.378Z,19.54
2018-05-17T14:30:52.901Z,19.40
2018-05-17T14:33:20.396Z,19.48
2018-05-17T14:35:48.333Z,19.60
2018-05-17T14:38:15.846Z,19.51
2018-05-17T14:40:43.333Z,19.66
2018-05-17T14:43:10.854Z,19.63
2018-05-17T14:45:38.343Z,19.64
2018-05-17T14:48:06.296Z,19.58
2018-05-17T14:50:33.885Z,19.45
2018-05-17T14:53:01.402Z,19.39
2018-05-17T14:55:29.824Z,19.17
2018-05-17T14:57:57.305Z,19.15
2018-05-17T15:00:24.902Z,19.24
2018-05-17T15:02:52.415Z,19.29
2018-05-17T15:05:19.930Z,19.34
2018-05-17T15:07:47.497Z,19.37
2018-05-17T15:10:14.990Z,19.41
2018-05-17T15:12:42.847Z,19.47
2018-05-17T15:15:10.341Z,19.32
2018-05-17T15:17:37.837Z,19.58
2018-05-17T15:20:05.345Z,19.65
2018-05-17T15:22:32.837Z,19.85
2018-05-17T15:25:00.365Z,19.68
2018-05-17T15:27:27.971Z,19.78
2018-05-17T15:29:55.736Z,19.80
2018-05-17T15:32:23.278Z,19.87
2018-05-17T15:34:50.777Z,19.97
2018-05-17T15:37:18.550Z,19.97
2018-05-17T15:39:46.054Z,19.65
2018-05-17T15:42:13.616Z,19.59
2018-05-17T15:44:41.132Z,19.98
2018-05-17T15:47:08.637Z,19.87
2018-05-17T15:49:36.169Z,19.87
2018-05-17T15:52:03.686Z,19.99
2018-05-17T15:54:31.205Z,20.08
2018-05-17T15:56:58.750Z,20.01
2018-05-17T15:59:26.283Z,19.80
2018-05-17T16:01:53.973Z,19.64
2018-05-17T16:04:21.457Z,19.77
2018-05-17T16:06:48.945Z,19.94
2018-05-17T16:09:16.477Z,19.83
2018-05-17T16:11:43.974Z,19.95
2018-05-17T16:14:11.521Z,19.94
2018-05-17T16:16:39.015Z,19.92
2018-05-17T16:19:06.501Z,19.97
2018-05-17T16:21:34.007Z,19.93
2018-05-17T16:24:01.520Z,19.88
2018-05-17T16:26:29.397Z,19.86
2018-05-17T16:28:56.880Z,19.67
2018-05-17T16:31:24.361Z,19.78
2018-05-17T16:33:51.888Z,19.62
2018-05-17T16:36:19.377Z,19.81
2018-05-17T16:38:47.145Z,19.85
2018-05-17T16:41:14.633Z,19.69
2018-05-17T16:43:42.128Z,19.47
2018-05-17T16:46:09.638Z,19.71
2018-05-17T16:48:37.244Z,19.74
2018-05-17T16:51:05.046Z,19.74
2018-05-17T16:53:32.536Z,19.69
2018-05-17T16:56:00.041Z,19.62
2018-05-17T16:58:27.552Z,19.62
2018-05-17T17:00:55.044Z,19.41
2018-05-17T17:03:22.577Z,19.57
2018-05-17T17:05:50.065Z,19.47
2018-05-17T17:08:17.553Z,19.43
2018-05-17T17:10:45.077Z,19.19
2018-05-17T17:13:12.572Z,19.25
2018-05-17T17:15:40.457Z,19.31
2018-05-17T17:18:07.948Z,19.09
2018-05-17T17:20:35.438Z,19.20
2018-05-17T17:23:02.966Z,19.15
2018-05-17T17:25:30.453Z,19.02
2018-05-17T17:27:58.129Z,19.13
2018-05-17T17:30:25.618Z,18.88
2018-05-17T17:32:53.121Z,19.01
2018-05-17T17:35:20.649Z,19.05
2018-05-17T17:37:48.146Z,18.97
2018-05-17T17:40:15.713Z,18.75
2018-05-17T17:42:43.205Z,18.92
2018-05-17T17:45:10.707Z,18.79
2018-05-17T17:47:38.236Z,18.90
2018-05-17T17:50:05.727Z,18.85
2018-05-17T17:52:33.489Z,18.74
2018-05-17T17:55:00.980Z,18.55
2018-05-17T17:57:28.486Z,18.58
2018-05-17T17:59:56.001Z,18.76
2018-05-17T18:02:23.508Z,18.72
2018-05-17T18:04:51.278Z,18.61
2018-05-17T18:07:18.765Z,18.60
2018-05-17T18:09:46.275Z,18.60
2018-05-17T18:12:13.801Z,18.61
2018-05-17T18:14:41.329Z,18.63
2018-05-17T18:17:09.027Z,18.46
2018-05-17T18:19:36.517Z,18.69
2018-05-17T18:22:04.027Z,18.62
2018-05-17T18:24:31.565Z,18.46
2018-05-17T18:26:59.066Z,18.38
2018-05-17T18:29:26.605Z,18.23
2018-05-17T18:31:54.440Z,18.28
2018-05-17T18:34:22.246Z,18.35
2018-05-17T18:36:49.832Z,18.00
2018-05-17T18:39:17.417Z,18.06
2018-05-17T18:41:45.260Z,18.13
2018-05-17T18:44:12.830Z,17.88
2018-05-17T18:46:40.321Z,18.12
2018-05-17T18:49:07.847Z,17.86
2018-05-17T18:51:35.387Z,17.58
2018-05-17T18:54:03.511Z,17.66
2018-05-17T18:56:31.427Z,17.48
2018-05-17T18:58:59.409Z,17.15
2018-05-17T19:01:27.499Z,17.10
2018-05-17T19:03:55.534Z,16.92
2018-05-17T19:06:23.857Z,16.69
2018-05-17T19:08:52.367Z,16.42
2018-05-17T19:11:20.756Z,16.49
2018-05-17T19:13:48.947Z,16.34
2018-05-17T19:16:17.417Z,16.05
2018-05-17T19:18:45.618Z,15.75
2018-05-17T19:21:13.799Z,15.70
2018-05-17T19:23:41.889Z,15.57
2018-05-17T19:26:09.866Z,15.56
2018-05-17T19:28:38.262Z,15.42
2018-05-17T19:31:06.448Z,15.35
2018-05-17T19:33:34.832Z,15.31
2018-05-17T19:36:03.028Z,15.40
2018-05-17T19:38:31.012Z,15.14
2018-05-17T19:40:59.096Z,15.02
2018-05-17T19:43:27.383Z,14.76
2018-05-17T19:45:55.048Z,14.54
2018-05-17T19:48:24.813Z,14.32
2018-05-17T19:50:53.418Z,14.14
2018-05-17T19:53:21.664Z,13.94
2018-05-17T19:55:50.053Z,13.88
2018-05-17T19:58:18.044Z,13.74
2018-05-17T20:00:46.324Z,13.79
2018-05-17T20:03:14.618Z,13.82
2018-05-17T20:05:42.906Z,13.66
2018-05-17T20:08:11.324Z,13.62
2018-05-17T20:10:39.279Z,13.41
2018-05-17T20:13:07.667Z,13.49
2018-05-17T20:15:35.255Z,13.55
2018-05-17T20:18:02.872Z,13.27
2018-05-17T20:20:30.892Z,13.48
2018-05-17T20:22:59.772Z,13.13
2018-05-17T20:25:27.565Z,13.14
2018-05-17T20:27:55.132Z,13.08
2018-05-17T20:30:22.662Z,13.09
2018-05-17T20:32:50.203Z,12.92
2018-05-17T20:35:17.702Z,13.01
2018-05-17T20:37:45.201Z,13.00
2018-05-17T20:40:12.736Z,12.78
2018-05-17T20:42:40.230Z,12.79
2018-05-17T20:45:07.916Z,12.80
2018-05-17T20:47:35.417Z,12.82
2018-05-17T20:50:02.921Z,12.43
2018-05-17T20:52:30.424Z,12.49
2018-05-17T20:54:57.927Z,12.35
2018-05-17T20:57:25.576Z,12.42
2018-05-17T20:59:53.143Z,12.46
2018-05-17T21:02:20.662Z,12.31
2018-05-17T21:04:48.185Z,12.34
2018-05-17T21:07:15.704Z,12.25
2018-05-17T21:09:43.631Z,12.31
2018-05-17T21:12:11.130Z,11.80
2018-05-17T21:14:38.646Z,11.93
2018-05-17T21:17:06.158Z,11.89
2018-05-17T21:19:33.652Z,11.99
2018-05-17T21:22:01.181Z,11.99
2018-05-17T21:24:28.669Z,12.13
2018-05-17T21:26:56.253Z,12.09
2018-05-17T21:29:23.777Z,12.27
2018-05-17T21:31:51.269Z,12.12
2018-05-17T21:34:18.866Z,12.09
2018-05-17T21:36:46.361Z,12.06
2018-05-17T21:39:13.849Z,11.86
2018-05-17T21:41:41.374Z,12.02
2018-05-17T21:44:08.865Z,12.00
2018-05-17T21:46:36.419Z,11.90
2018-05-17T21:49:03.941Z,11.72
2018-05-17T21:51:31.427Z,11.81
2018-05-17T21:53:58.941Z,11.63
2018-05-17T21:56:26.429Z,11.65
2018-05-17T21:58:54.164Z,11.54
2018-05-17T22:01:21.656Z,11.52
2018-05-17T22:03:49.153Z,11.50
2018-05-17T22:06:16.700Z,11.41
2018-05-17T22:08:44.188Z,11.40
2018-05-17T22:11:11.757Z,11.54
2018-05-17T22:13:39.244Z,11.58
2018-05-17T22:16:06.730Z,11.45
2018-05-17T22:18:34.243Z,11.62
2018-05-17T22:21:01.729Z,11.39
2018-05-17T22:23:29.445Z,11.22
2018-05-17T22:25:56.937Z,11.32
2018-05-17T22:28:24.557Z,11.20
2018-05-17T22:30:52.075Z,11.30
2018-05-17T22:33:19.569Z,11.34
2018-05-17T22:35:47.092Z,11.37
2018-05-17T22:38:14.616Z,11.18
2018-05-17T22:40:42.104Z,11.09
2018-05-17T22:43:09.613Z,11.20
2018-05-17T22:45:37.109Z,11.19
2018-05-17T22:48:04.777Z,11.28
2018-05-17T22:50:32.266Z,11.48
2018-05-17T22:53:00.109Z,11.53
2018-05-17T22:55:27.631Z,11.32
2018-05-17T22:58:06.960Z,11.37
2018-05-17T23:00:34.487Z,11.31
2018-05-17T23:03:01.973Z,11.33
2018-05-17T23:05:29.473Z,11.32
2018-05-17T23:07:57.011Z,11.28
2018-05-17T23:10:24.517Z,11.36
2018-05-17T23:12:52.169Z,11.52
2018-05-17T23:15:19.654Z,11.52
2018-05-17T23:17:47.161Z,11.59
2018-05-17T23:20:14.712Z,11.61
2018-05-17T23:22:42.197Z,11.34
2018-05-17T23:25:09.841Z,11.49
2018-05-17T23:27:37.348Z,11.36
2018-05-17T23:30:04.833Z,11.33
2018-05-17T23:32:32.363Z,11.33
2018-05-17T23:34:59.849Z,11.25
2018-05-17T23:37:27.385Z,11.17
2018-05-17T23:39:54.868Z,11.06
2018-05-17T23:42:22.371Z,10.89
2018-05-17T23:44:49.900Z,10.84
2018-05-17T23:47:17.401Z,10.92
2018-05-17T23:49:45.149Z,10.96
2018-05-17T23:52:12.637Z,10.77
2018-05-17T23:54:40.124Z,10.81
2018-05-17T23:57:07.648Z,10.87
2018-05-17T23:59:35.138Z,10.79
